sensor_id;sensor_type;location;lat;lon;timestamp;temperature;humidity
3134;DHT22;1577;49.912;10.924;2023-04-24T00:01:41;12.20;99.90
3134;DHT22;1577;49.912;10.924;2023-04-24T00:04:08;12.10;99.90
3134;DHT22;1577;49.912;10.924;2023-04-24T00:06:38;12.10;99.90
3134;DHT22;1577;49.912;10.924;2023-04-24T00:09:11;12.00;99.90
3134;DHT22;1577;49.912;10.924;2023-04-24T00:11:36;12.00;99.90
3134;DHT22;1577;49.912;10.924;2023-04-24T00:14:02;12.00;99.90
3134;DHT22;1577;49.912;10.924;2023-04-24T00:16:28;12.00;99.90
3134;DHT22;1577;49.912;10.924;2023-04-24T00:18:54;12.00;99.90
3134;DHT22;1577;49.912;10.924;2023-04-24T00:21:20;11.90;99.90
3134;DHT22;1577;49.912;10.924;2023-04-24T00:23:47;11.90;99.90
3134;DHT22;1577;49.912;10.924;2023-04-24T00:26:13;11.90;99.90
3134;DHT22;1577;49.912;10.924;2023-04-24T00:28:39;11.90;99.90
3134;DHT22;1577;49.912;10.924;2023-04-24T00:31:05;11.90;99.90
3134;DHT22;1577;49.912;10.924;2023-04-24T00:33:30;12.00;99.90
3134;DHT22;1577;49.912;10.924;2023-04-24T00:35:56;12.00;99.90
3134;DHT22;1577;49.912;10.924;2023-04-24T00:38:21;12.10;99.90
3134;DHT22;1577;49.912;10.924;2023-04-24T00:40:48;12.00;99.90
3134;DHT22;1577;49.912;10.924;2023-04-24T00:43:15;11.90;99.90
3134;DHT22;1577;49.912;10.924;2023-04-24T00:45:41;11.80;99.90
3134;DHT22;1577;49.912;10.924;2023-04-24T00:48:07;11.80;99.90
3134;DHT22;1577;49.912;10.924;2023-04-24T00:50:35;11.80;99.90
3134;DHT22;1577;49.912;10.924;2023-04-24T00:53:01;11.80;99.90
3134;DHT22;1577;49.912;10.924;2023-04-24T00:55:26;11.80;99.90
3134;DHT22;1577;49.912;10.924;2023-04-24T00:57:52;11.80;99.90
3134;DHT22;1577;49.912;10.924;2023-04-24T01:00:18;11.80;99.90
3134;DHT22;1577;49.912;10.924;2023-04-24T01:02:44;11.90;99.90
3134;DHT22;1577;49.912;10.924;2023-04-24T01:05:12;11.90;99.90
3134;DHT22;1577;49.912;10.924;2023-04-24T01:07:39;12.00;99.90
3134;DHT22;1577;49.912;10.924;2023-04-24T01:10:05;12.00;99.90
3134;DHT22;1577;49.912;10.924;2023-04-24T01:12:31;11.90;99.90
3134;DHT22;1577;49.912;10.924;2023-04-24T01:14:57;12.00;99.90
3134;DHT22;1577;49.912;10.924;2023-04-24T01:17:23;12.00;99.90
3134;DHT22;1577;49.912;10.924;2023-04-24T01:19:49;12.00;99.90
3134;DHT22;1577;49.912;10.924;2023-04-24T01:22:15;12.10;99.90
3134;DHT22;1577;49.912;10.924;2023-04-24T01:24:42;12.10;99.90
3134;DHT22;1577;49.912;10.924;2023-04-24T01:27:09;12.10;99.90
3134;DHT22;1577;49.912;10.924;2023-04-24T01:29:36;12.00;99.90
3134;DHT22;1577;49.912;10.924;2023-04-24T01:32:03;12.00;99.90
3134;DHT22;1577;49.912;10.924;2023-04-24T01:34:30;12.00;99.90
3134;DHT22;1577;49.912;10.924;2023-04-24T01:36:55;11.90;99.90
3134;DHT22;1577;49.912;10.924;2023-04-24T01:39:22;12.00;99.90
3134;DHT22;1577;49.912;10.924;2023-04-24T01:41:49;12.00;99.90
3134;DHT22;1577;49.912;10.924;2023-04-24T01:44:16;12.00;99.90
3134;DHT22;1577;49.912;10.924;2023-04-24T01:46:42;11.90;99.90
3134;DHT22;1577;49.912;10.924;2023-04-24T01:49:08;11.80;99.90
3134;DHT22;1577;49.912;10.924;2023-04-24T01:51:33;11.80;99.90
3134;DHT22;1577;49.912;10.924;2023-04-24T01:53:59;11.80;99.90
3134;DHT22;1577;49.912;10.924;2023-04-24T01:56:25;11.70;99.90
3134;DHT22;1577;49.912;10.924;2023-04-24T01:58:54;11.70;99.90
3134;DHT22;1577;49.912;10.924;2023-04-24T02:01:20;11.70;99.90
3134;DHT22;1577;49.912;10.924;2023-04-24T02:03:46;11.70;99.90
3134;DHT22;1577;49.912;10.924;2023-04-24T02:06:12;11.60;99.90
3134;DHT22;1577;49.912;10.924;2023-04-24T02:08:37;11.60;99.90
3134;DHT22;1577;49.912;10.924;2023-04-24T02:11:03;11.60;99.90
3134;DHT22;1577;49.912;10.924;2023-04-24T02:13:29;11.60;99.90
3134;DHT22;1577;49.912;10.924;2023-04-24T02:15:54;11.60;99.90
3134;DHT22;1577;49.912;10.924;2023-04-24T02:18:20;11.60;99.90
3134;DHT22;1577;49.912;10.924;2023-04-24T02:20:46;11.60;99.90
3134;DHT22;1577;49.912;10.924;2023-04-24T02:23:11;11.60;99.90
3134;DHT22;1577;49.912;10.924;2023-04-24T02:25:38;11.70;99.90
3134;DHT22;1577;49.912;10.924;2023-04-24T02:28:04;11.70;99.90
3134;DHT22;1577;49.912;10.924;2023-04-24T02:30:29;11.70;99.90
3134;DHT22;1577;49.912;10.924;2023-04-24T02:32:55;11.70;99.90
3134;DHT22;1577;49.912;10.924;2023-04-24T02:35:21;11.70;99.90
3134;DHT22;1577;49.912;10.924;2023-04-24T02:37:47;11.60;99.90
3134;DHT22;1577;49.912;10.924;2023-04-24T02:40:12;11.60;99.90
3134;DHT22;1577;49.912;10.924;2023-04-24T02:42:38;11.60;99.90
3134;DHT22;1577;49.912;10.924;2023-04-24T02:45:04;11.60;99.90
3134;DHT22;1577;49.912;10.924;2023-04-24T02:47:30;11.50;99.90
3134;DHT22;1577;49.912;10.924;2023-04-24T02:49:56;11.50;99.90
3134;DHT22;1577;49.912;10.924;2023-04-24T02:52:21;11.60;99.90
3134;DHT22;1577;49.912;10.924;2023-04-24T02:54:47;11.60;99.90
3134;DHT22;1577;49.912;10.924;2023-04-24T02:57:12;11.60;99.90
3134;DHT22;1577;49.912;10.924;2023-04-24T02:59:38;11.60;99.90
3134;DHT22;1577;49.912;10.924;2023-04-24T03:02:03;11.60;99.90
3134;DHT22;1577;49.912;10.924;2023-04-24T03:04:29;11.70;99.90
3134;DHT22;1577;49.912;10.924;2023-04-24T03:06:55;11.70;99.90
3134;DHT22;1577;49.912;10.924;2023-04-24T03:09:21;11.70;99.90
3134;DHT22;1577;49.912;10.924;2023-04-24T03:11:46;11.70;99.90
3134;DHT22;1577;49.912;10.924;2023-04-24T03:14:13;11.70;99.90
3134;DHT22;1577;49.912;10.924;2023-04-24T03:16:39;11.70;99.90
3134;DHT22;1577;49.912;10.924;2023-04-24T03:19:05;11.70;99.90
3134;DHT22;1577;49.912;10.924;2023-04-24T03:21:30;11.70;99.90
3134;DHT22;1577;49.912;10.924;2023-04-24T03:23:56;11.70;99.90
3134;DHT22;1577;49.912;10.924;2023-04-24T03:26:21;11.70;99.90
3134;DHT22;1577;49.912;10.924;2023-04-24T03:28:47;11.70;99.90
3134;DHT22;1577;49.912;10.924;2023-04-24T03:31:13;11.70;99.90
3134;DHT22;1577;49.912;10.924;2023-04-24T03:33:38;11.60;99.90
3134;DHT22;1577;49.912;10.924;2023-04-24T03:36:04;11.70;99.90
3134;DHT22;1577;49.912;10.924;2023-04-24T03:38:30;11.60;99.90
3134;DHT22;1577;49.912;10.924;2023-04-24T03:40:55;11.60;99.90
3134;DHT22;1577;49.912;10.924;2023-04-24T03:43:21;11.70;99.90
3134;DHT22;1577;49.912;10.924;2023-04-24T03:45:47;11.70;99.90
3134;DHT22;1577;49.912;10.924;2023-04-24T03:48:12;11.60;99.90
3134;DHT22;1577;49.912;10.924;2023-04-24T03:50:38;11.60;99.90
3134;DHT22;1577;49.912;10.924;2023-04-24T03:53:03;11.60;99.90
3134;DHT22;1577;49.912;10.924;2023-04-24T03:55:29;11.50;99.90
3134;DHT22;1577;49.912;10.924;2023-04-24T03:57:55;11.50;99.90
3134;DHT22;1577;49.912;10.924;2023-04-24T04:00:20;11.50;99.90
3134;DHT22;1577;49.912;10.924;2023-04-24T04:02:46;11.50;99.90
3134;DHT22;1577;49.912;10.924;2023-04-24T04:05:12;11.50;99.90
3134;DHT22;1577;49.912;10.924;2023-04-24T04:07:37;11.50;99.90
3134;DHT22;1577;49.912;10.924;2023-04-24T04:10:03;11.50;99.90
3134;DHT22;1577;49.912;10.924;2023-04-24T04:12:29;11.50;99.90
3134;DHT22;1577;49.912;10.924;2023-04-24T04:14:55;11.50;99.90
3134;DHT22;1577;49.912;10.924;2023-04-24T04:17:20;11.50;99.90
3134;DHT22;1577;49.912;10.924;2023-04-24T04:19:46;11.50;99.90
3134;DHT22;1577;49.912;10.924;2023-04-24T04:22:12;11.50;99.90
3134;DHT22;1577;49.912;10.924;2023-04-24T04:24:37;11.50;99.90
3134;DHT22;1577;49.912;10.924;2023-04-24T04:27:04;11.50;99.90
3134;DHT22;1577;49.912;10.924;2023-04-24T04:29:30;11.50;99.90
3134;DHT22;1577;49.912;10.924;2023-04-24T04:31:56;11.50;99.90
3134;DHT22;1577;49.912;10.924;2023-04-24T04:34:22;11.50;99.90
3134;DHT22;1577;49.912;10.924;2023-04-24T04:36:49;11.50;99.90
3134;DHT22;1577;49.912;10.924;2023-04-24T04:39:16;11.60;99.90
3134;DHT22;1577;49.912;10.924;2023-04-24T04:41:42;11.60;99.90
3134;DHT22;1577;49.912;10.924;2023-04-24T04:44:07;11.60;99.90
3134;DHT22;1577;49.912;10.924;2023-04-24T04:46:34;11.60;99.90
3134;DHT22;1577;49.912;10.924;2023-04-24T04:49:00;11.60;99.90
3134;DHT22;1577;49.912;10.924;2023-04-24T04:51:26;11.60;99.90
3134;DHT22;1577;49.912;10.924;2023-04-24T04:53:52;11.60;99.90
3134;DHT22;1577;49.912;10.924;2023-04-24T04:56:18;11.60;99.90
3134;DHT22;1577;49.912;10.924;2023-04-24T04:58:44;11.60;99.90
3134;DHT22;1577;49.912;10.924;2023-04-24T05:01:09;11.60;99.90
3134;DHT22;1577;49.912;10.924;2023-04-24T05:03:35;11.60;99.90
3134;DHT22;1577;49.912;10.924;2023-04-24T05:06:01;11.60;99.90
3134;DHT22;1577;49.912;10.924;2023-04-24T05:08:27;11.60;99.90
3134;DHT22;1577;49.912;10.924;2023-04-24T05:10:53;11.70;99.90
3134;DHT22;1577;49.912;10.924;2023-04-24T05:13:19;11.70;99.90
3134;DHT22;1577;49.912;10.924;2023-04-24T05:15:45;11.80;99.90
3134;DHT22;1577;49.912;10.924;2023-04-24T05:18:10;11.90;99.90
3134;DHT22;1577;49.912;10.924;2023-04-24T05:20:36;12.00;99.90
3134;DHT22;1577;49.912;10.924;2023-04-24T05:23:01;12.00;99.90
3134;DHT22;1577;49.912;10.924;2023-04-24T05:25:27;12.00;99.90
3134;DHT22;1577;49.912;10.924;2023-04-24T05:27:53;12.10;99.90
3134;DHT22;1577;49.912;10.924;2023-04-24T05:30:19;12.10;99.90
3134;DHT22;1577;49.912;10.924;2023-04-24T05:32:45;12.10;99.90
3134;DHT22;1577;49.912;10.924;2023-04-24T05:35:11;12.10;99.90
3134;DHT22;1577;49.912;10.924;2023-04-24T05:37:36;12.20;99.90
3134;DHT22;1577;49.912;10.924;2023-04-24T05:40:02;12.20;99.90
3134;DHT22;1577;49.912;10.924;2023-04-24T05:42:30;12.30;99.90
3134;DHT22;1577;49.912;10.924;2023-04-24T05:44:56;12.30;99.90
3134;DHT22;1577;49.912;10.924;2023-04-24T05:47:21;12.40;99.90
3134;DHT22;1577;49.912;10.924;2023-04-24T05:49:47;12.40;99.90
3134;DHT22;1577;49.912;10.924;2023-04-24T05:52:13;12.40;99.90
3134;DHT22;1577;49.912;10.924;2023-04-24T05:54:39;12.40;99.90
3134;DHT22;1577;49.912;10.924;2023-04-24T05:57:04;12.30;99.90
3134;DHT22;1577;49.912;10.924;2023-04-24T05:59:33;12.40;99.90
3134;DHT22;1577;49.912;10.924;2023-04-24T06:01:59;12.40;99.90
3134;DHT22;1577;49.912;10.924;2023-04-24T06:04:25;12.40;99.90
3134;DHT22;1577;49.912;10.924;2023-04-24T06:06:51;12.50;99.90
3134;DHT22;1577;49.912;10.924;2023-04-24T06:09:23;12.50;99.90
3134;DHT22;1577;49.912;10.924;2023-04-24T06:11:49;12.60;99.90
3134;DHT22;1577;49.912;10.924;2023-04-24T06:14:18;12.60;99.90
3134;DHT22;1577;49.912;10.924;2023-04-24T06:16:43;12.70;99.90
3134;DHT22;1577;49.912;10.924;2023-04-24T06:19:09;12.70;99.90
3134;DHT22;1577;49.912;10.924;2023-04-24T06:21:35;12.70;99.90
3134;DHT22;1577;49.912;10.924;2023-04-24T06:24:00;12.60;99.90
3134;DHT22;1577;49.912;10.924;2023-04-24T06:26:26;12.50;99.90
3134;DHT22;1577;49.912;10.924;2023-04-24T06:28:52;12.40;99.90
3134;DHT22;1577;49.912;10.924;2023-04-24T06:31:19;12.30;99.90
3134;DHT22;1577;49.912;10.924;2023-04-24T06:33:45;12.20;99.90
3134;DHT22;1577;49.912;10.924;2023-04-24T06:36:12;12.20;99.90
3134;DHT22;1577;49.912;10.924;2023-04-24T06:38:37;12.20;99.90
3134;DHT22;1577;49.912;10.924;2023-04-24T06:41:03;12.20;99.90
3134;DHT22;1577;49.912;10.924;2023-04-24T06:43:30;12.20;99.90
3134;DHT22;1577;49.912;10.924;2023-04-24T06:45:57;12.20;99.90
3134;DHT22;1577;49.912;10.924;2023-04-24T06:48:24;12.30;99.90
3134;DHT22;1577;49.912;10.924;2023-04-24T06:50:50;12.30;99.90
3134;DHT22;1577;49.912;10.924;2023-04-24T06:53:16;12.30;99.90
3134;DHT22;1577;49.912;10.924;2023-04-24T06:55:42;12.30;99.90
3134;DHT22;1577;49.912;10.924;2023-04-24T06:58:08;12.30;99.90
3134;DHT22;1577;49.912;10.924;2023-04-24T07:00:34;12.40;99.90
3134;DHT22;1577;49.912;10.924;2023-04-24T07:03:00;12.40;99.90
3134;DHT22;1577;49.912;10.924;2023-04-24T07:05:25;12.50;99.90
3134;DHT22;1577;49.912;10.924;2023-04-24T07:07:51;12.60;99.90
3134;DHT22;1577;49.912;10.924;2023-04-24T07:10:17;12.70;99.90
3134;DHT22;1577;49.912;10.924;2023-04-24T07:12:43;12.70;99.90
3134;DHT22;1577;49.912;10.924;2023-04-24T07:15:09;12.80;99.90
3134;DHT22;1577;49.912;10.924;2023-04-24T07:17:34;12.90;99.90
3134;DHT22;1577;49.912;10.924;2023-04-24T07:20:00;13.00;99.90
3134;DHT22;1577;49.912;10.924;2023-04-24T07:22:26;13.20;99.90
3134;DHT22;1577;49.912;10.924;2023-04-24T07:24:52;13.30;99.90
3134;DHT22;1577;49.912;10.924;2023-04-24T07:27:17;13.50;99.90
3134;DHT22;1577;49.912;10.924;2023-04-24T07:29:43;13.60;99.90
3134;DHT22;1577;49.912;10.924;2023-04-24T07:32:08;13.80;99.90
3134;DHT22;1577;49.912;10.924;2023-04-24T07:34:34;13.90;99.90
3134;DHT22;1577;49.912;10.924;2023-04-24T07:37:00;14.20;99.90
3134;DHT22;1577;49.912;10.924;2023-04-24T07:39:26;14.60;99.90
3134;DHT22;1577;49.912;10.924;2023-04-24T07:41:52;14.80;99.90
3134;DHT22;1577;49.912;10.924;2023-04-24T07:44:17;14.90;99.90
3134;DHT22;1577;49.912;10.924;2023-04-24T07:46:43;15.00;99.90
3134;DHT22;1577;49.912;10.924;2023-04-24T07:49:08;15.10;99.90
3134;DHT22;1577;49.912;10.924;2023-04-24T07:51:34;15.00;99.90
3134;DHT22;1577;49.912;10.924;2023-04-24T07:54:04;14.80;99.90
3134;DHT22;1577;49.912;10.924;2023-04-24T07:56:32;14.90;99.90
3134;DHT22;1577;49.912;10.924;2023-04-24T07:58:58;15.00;99.90
3134;DHT22;1577;49.912;10.924;2023-04-24T08:01:24;15.30;99.90
3134;DHT22;1577;49.912;10.924;2023-04-24T08:03:50;16.00;99.90
3134;DHT22;1577;49.912;10.924;2023-04-24T08:06:15;17.20;99.90
3134;DHT22;1577;49.912;10.924;2023-04-24T08:08:41;18.10;98.10
3134;DHT22;1577;49.912;10.924;2023-04-24T08:11:06;18.50;96.00
3134;DHT22;1577;49.912;10.924;2023-04-24T08:13:32;18.60;95.20
3134;DHT22;1577;49.912;10.924;2023-04-24T08:15:58;18.40;95.20
3134;DHT22;1577;49.912;10.924;2023-04-24T08:18:23;18.20;95.00
3134;DHT22;1577;49.912;10.924;2023-04-24T08:20:49;17.70;94.30
3134;DHT22;1577;49.912;10.924;2023-04-24T08:23:14;17.10;94.70
3134;DHT22;1577;49.912;10.924;2023-04-24T08:25:40;16.60;94.90
3134;DHT22;1577;49.912;10.924;2023-04-24T08:28:06;16.20;95.70
3134;DHT22;1577;49.912;10.924;2023-04-24T08:30:34;15.70;95.90
3134;DHT22;1577;49.912;10.924;2023-04-24T08:32:59;15.50;96.50
3134;DHT22;1577;49.912;10.924;2023-04-24T08:35:25;15.30;96.90
3134;DHT22;1577;49.912;10.924;2023-04-24T08:37:52;15.30;97.60
3134;DHT22;1577;49.912;10.924;2023-04-24T08:40:22;15.80;97.10
3134;DHT22;1577;49.912;10.924;2023-04-24T08:42:49;16.20;96.30
3134;DHT22;1577;49.912;10.924;2023-04-24T08:45:16;16.10;95.70
3134;DHT22;1577;49.912;10.924;2023-04-24T08:47:42;15.70;96.00
3134;DHT22;1577;49.912;10.924;2023-04-24T08:50:08;15.20;96.20
3134;DHT22;1577;49.912;10.924;2023-04-24T08:52:35;15.00;96.90
3134;DHT22;1577;49.912;10.924;2023-04-24T08:55:01;15.10;97.50
3134;DHT22;1577;49.912;10.924;2023-04-24T08:57:28;15.10;97.10
3134;DHT22;1577;49.912;10.924;2023-04-24T08:59:55;15.00;97.00
3134;DHT22;1577;49.912;10.924;2023-04-24T09:02:21;14.80;97.40
3134;DHT22;1577;49.912;10.924;2023-04-24T09:04:49;14.70;97.40
3134;DHT22;1577;49.912;10.924;2023-04-24T09:07:16;14.60;97.80
3134;DHT22;1577;49.912;10.924;2023-04-24T09:09:43;14.80;98.00
3134;DHT22;1577;49.912;10.924;2023-04-24T09:12:09;14.90;97.60
3134;DHT22;1577;49.912;10.924;2023-04-24T09:14:36;14.90;97.10
3134;DHT22;1577;49.912;10.924;2023-04-24T09:17:06;14.80;97.20
3134;DHT22;1577;49.912;10.924;2023-04-24T09:19:31;14.70;97.30
3134;DHT22;1577;49.912;10.924;2023-04-24T09:21:57;14.60;97.50
3134;DHT22;1577;49.912;10.924;2023-04-24T09:24:23;14.60;97.60
3134;DHT22;1577;49.912;10.924;2023-04-24T09:26:49;14.70;97.20
3134;DHT22;1577;49.912;10.924;2023-04-24T09:29:21;14.80;97.30
3134;DHT22;1577;49.912;10.924;2023-04-24T09:31:46;15.00;97.10
3134;DHT22;1577;49.912;10.924;2023-04-24T09:34:12;15.00;97.10
3134;DHT22;1577;49.912;10.924;2023-04-24T09:36:40;15.00;96.20
3134;DHT22;1577;49.912;10.924;2023-04-24T09:39:08;14.90;95.90
3134;DHT22;1577;49.912;10.924;2023-04-24T09:41:47;14.70;96.60
3134;DHT22;1577;49.912;10.924;2023-04-24T09:44:17;14.50;96.90
3134;DHT22;1577;49.912;10.924;2023-04-24T09:46:45;14.40;97.20
3134;DHT22;1577;49.912;10.924;2023-04-24T09:49:15;14.20;97.30
3134;DHT22;1577;49.912;10.924;2023-04-24T09:51:44;14.00;97.80
3134;DHT22;1577;49.912;10.924;2023-04-24T09:54:18;13.90;97.70
3134;DHT22;1577;49.912;10.924;2023-04-24T09:56:45;13.90;98.00
3134;DHT22;1577;49.912;10.924;2023-04-24T09:59:13;13.80;98.30
3134;DHT22;1577;49.912;10.924;2023-04-24T10:01:39;14.00;98.40
3134;DHT22;1577;49.912;10.924;2023-04-24T10:04:18;14.10;98.00
3134;DHT22;1577;49.912;10.924;2023-04-24T10:06:45;14.30;98.10
3134;DHT22;1577;49.912;10.924;2023-04-24T10:09:11;14.50;97.90
3134;DHT22;1577;49.912;10.924;2023-04-24T10:11:42;14.70;97.50
3134;DHT22;1577;49.912;10.924;2023-04-24T10:14:10;14.70;97.60
3134;DHT22;1577;49.912;10.924;2023-04-24T10:16:37;14.70;98.00
3134;DHT22;1577;49.912;10.924;2023-04-24T10:19:03;14.70;98.10
3134;DHT22;1577;49.912;10.924;2023-04-24T10:21:29;14.60;98.50
3134;DHT22;1577;49.912;10.924;2023-04-24T10:23:55;14.30;98.10
3134;DHT22;1577;49.912;10.924;2023-04-24T10:26:22;14.00;98.10
3134;DHT22;1577;49.912;10.924;2023-04-24T10:28:48;13.90;98.00
3134;DHT22;1577;49.912;10.924;2023-04-24T10:31:14;13.80;98.50
3134;DHT22;1577;49.912;10.924;2023-04-24T10:33:43;13.70;98.70
3134;DHT22;1577;49.912;10.924;2023-04-24T10:36:12;13.80;99.50
3134;DHT22;1577;49.912;10.924;2023-04-24T10:38:40;14.00;98.70
3134;DHT22;1577;49.912;10.924;2023-04-24T10:41:11;14.30;98.30
3134;DHT22;1577;49.912;10.924;2023-04-24T10:43:45;14.60;97.40
3134;DHT22;1577;49.912;10.924;2023-04-24T10:46:19;14.60;95.70
3134;DHT22;1577;49.912;10.924;2023-04-24T10:48:52;14.70;95.50
3134;DHT22;1577;49.912;10.924;2023-04-24T10:51:26;14.80;95.10
3134;DHT22;1577;49.912;10.924;2023-04-24T10:54:26;15.00;95.00
3134;DHT22;1577;49.912;10.924;2023-04-24T10:56:53;15.20;94.80
3134;DHT22;1577;49.912;10.924;2023-04-24T10:59:27;15.30;94.70
3134;DHT22;1577;49.912;10.924;2023-04-24T11:01:54;15.50;94.80
3134;DHT22;1577;49.912;10.924;2023-04-24T11:04:30;15.50;94.50
3134;DHT22;1577;49.912;10.924;2023-04-24T11:06:57;15.50;94.80
3134;DHT22;1577;49.912;10.924;2023-04-24T11:09:22;15.60;94.50
3134;DHT22;1577;49.912;10.924;2023-04-24T11:12:11;15.60;94.50
3134;DHT22;1577;49.912;10.924;2023-04-24T11:17:42;15.20;94.70
3134;DHT22;1577;49.912;10.924;2023-04-24T11:20:10;15.10;95.50
3134;DHT22;1577;49.912;10.924;2023-04-24T11:22:38;14.90;95.40
3134;DHT22;1577;49.912;10.924;2023-04-24T11:25:07;14.70;95.80
3134;DHT22;1577;49.912;10.924;2023-04-24T11:27:41;14.50;96.40
3134;DHT22;1577;49.912;10.924;2023-04-24T11:30:08;14.70;96.80
3134;DHT22;1577;49.912;10.924;2023-04-24T11:32:41;14.80;96.30
3134;DHT22;1577;49.912;10.924;2023-04-24T11:37:44;14.70;95.80
3134;DHT22;1577;49.912;10.924;2023-04-24T11:40:15;14.60;95.60
3134;DHT22;1577;49.912;10.924;2023-04-24T11:42:43;14.40;95.10
3134;DHT22;1577;49.912;10.924;2023-04-24T11:45:17;14.40;95.60
3134;DHT22;1577;49.912;10.924;2023-04-24T11:47:44;14.60;96.10
3134;DHT22;1577;49.912;10.924;2023-04-24T11:50:15;14.90;96.10
3134;DHT22;1577;49.912;10.924;2023-04-24T11:52:43;15.20;95.10
3134;DHT22;1577;49.912;10.924;2023-04-24T11:57:43;15.20;93.70
3134;DHT22;1577;49.912;10.924;2023-04-24T12:00:32;14.90;93.40
3134;DHT22;1577;49.912;10.924;2023-04-24T12:03:10;14.70;93.70
3134;DHT22;1577;49.912;10.924;2023-04-24T12:05:37;14.70;94.30
3134;DHT22;1577;49.912;10.924;2023-04-24T12:08:03;14.70;94.80
3134;DHT22;1577;49.912;10.924;2023-04-24T12:10:30;14.70;94.90
3134;DHT22;1577;49.912;10.924;2023-04-24T12:12:57;14.60;94.90
3134;DHT22;1577;49.912;10.924;2023-04-24T12:15:23;14.60;94.90
3134;DHT22;1577;49.912;10.924;2023-04-24T12:17:51;14.40;94.80
3134;DHT22;1577;49.912;10.924;2023-04-24T12:20:17;14.30;93.80
3134;DHT22;1577;49.912;10.924;2023-04-24T12:22:55;14.20;93.20
3134;DHT22;1577;49.912;10.924;2023-04-24T12:25:23;14.20;94.30
3134;DHT22;1577;49.912;10.924;2023-04-24T12:30:29;14.30;95.30
3134;DHT22;1577;49.912;10.924;2023-04-24T12:32:57;14.40;95.30
3134;DHT22;1577;49.912;10.924;2023-04-24T12:35:26;14.60;95.60
3134;DHT22;1577;49.912;10.924;2023-04-24T12:37:52;14.80;95.60
3134;DHT22;1577;49.912;10.924;2023-04-24T12:40:19;14.90;95.50
3134;DHT22;1577;49.912;10.924;2023-04-24T12:42:46;14.80;94.70
3134;DHT22;1577;49.912;10.924;2023-04-24T12:45:13;14.40;94.90
3134;DHT22;1577;49.912;10.924;2023-04-24T12:47:39;14.30;95.40
3134;DHT22;1577;49.912;10.924;2023-04-24T12:50:07;14.30;96.20
3134;DHT22;1577;49.912;10.924;2023-04-24T12:52:32;14.40;96.30
3134;DHT22;1577;49.912;10.924;2023-04-24T12:55:00;14.40;96.10
3134;DHT22;1577;49.912;10.924;2023-04-24T12:57:27;14.50;96.10
3134;DHT22;1577;49.912;10.924;2023-04-24T12:59:57;14.50;96.10
3134;DHT22;1577;49.912;10.924;2023-04-24T13:02:24;14.30;95.90
3134;DHT22;1577;49.912;10.924;2023-04-24T13:04:50;14.20;95.80
3134;DHT22;1577;49.912;10.924;2023-04-24T13:07:17;14.20;95.80
3134;DHT22;1577;49.912;10.924;2023-04-24T13:09:43;14.30;95.90
3134;DHT22;1577;49.912;10.924;2023-04-24T13:12:09;14.50;95.80
3134;DHT22;1577;49.912;10.924;2023-04-24T13:14:36;14.80;96.10
3134;DHT22;1577;49.912;10.924;2023-04-24T13:17:02;15.00;95.40
3134;DHT22;1577;49.912;10.924;2023-04-24T13:19:28;15.10;95.00
3134;DHT22;1577;49.912;10.924;2023-04-24T13:21:55;15.00;94.90
3134;DHT22;1577;49.912;10.924;2023-04-24T13:24:22;14.90;95.40
3134;DHT22;1577;49.912;10.924;2023-04-24T13:26:51;14.70;95.90
3134;DHT22;1577;49.912;10.924;2023-04-24T13:29:17;14.60;96.00
3134;DHT22;1577;49.912;10.924;2023-04-24T13:31:43;14.70;96.70
3134;DHT22;1577;49.912;10.924;2023-04-24T13:34:08;14.80;96.00
3134;DHT22;1577;49.912;10.924;2023-04-24T13:36:34;15.00;96.30
3134;DHT22;1577;49.912;10.924;2023-04-24T13:39:00;15.10;95.60
3134;DHT22;1577;49.912;10.924;2023-04-24T13:41:26;15.20;95.20
3134;DHT22;1577;49.912;10.924;2023-04-24T13:43:52;15.40;94.80
3134;DHT22;1577;49.912;10.924;2023-04-24T13:46:17;15.40;94.10
3134;DHT22;1577;49.912;10.924;2023-04-24T13:48:43;15.40;94.50
3134;DHT22;1577;49.912;10.924;2023-04-24T13:51:08;15.30;94.60
3134;DHT22;1577;49.912;10.924;2023-04-24T13:53:35;15.20;94.60
3134;DHT22;1577;49.912;10.924;2023-04-24T13:56:04;15.10;94.50
3134;DHT22;1577;49.912;10.924;2023-04-24T13:58:30;15.10;94.40
3134;DHT22;1577;49.912;10.924;2023-04-24T14:00:55;15.10;94.70
3134;DHT22;1577;49.912;10.924;2023-04-24T14:03:21;15.00;94.60
3134;DHT22;1577;49.912;10.924;2023-04-24T14:05:47;14.80;94.50
3134;DHT22;1577;49.912;10.924;2023-04-24T14:08:12;14.70;94.90
3134;DHT22;1577;49.912;10.924;2023-04-24T14:10:38;14.40;95.30
3134;DHT22;1577;49.912;10.924;2023-04-24T14:13:03;14.10;98.70
3134;DHT22;1577;49.912;10.924;2023-04-24T14:15:29;13.80;99.90
3134;DHT22;1577;49.912;10.924;2023-04-24T14:17:55;13.40;99.90
3134;DHT22;1577;49.912;10.924;2023-04-24T14:20:20;13.10;99.90
3134;DHT22;1577;49.912;10.924;2023-04-24T14:22:46;12.70;99.90
3134;DHT22;1577;49.912;10.924;2023-04-24T14:25:12;12.40;99.90
3134;DHT22;1577;49.912;10.924;2023-04-24T14:27:38;12.20;99.90
3134;DHT22;1577;49.912;10.924;2023-04-24T14:30:04;12.00;99.90
3134;DHT22;1577;49.912;10.924;2023-04-24T14:32:30;11.90;99.90
3134;DHT22;1577;49.912;10.924;2023-04-24T14:34:56;11.80;99.90
3134;DHT22;1577;49.912;10.924;2023-04-24T14:37:21;11.80;99.90
3134;DHT22;1577;49.912;10.924;2023-04-24T14:39:47;11.80;99.90
3134;DHT22;1577;49.912;10.924;2023-04-24T14:42:12;11.80;99.90
3134;DHT22;1577;49.912;10.924;2023-04-24T14:44:38;11.80;99.90
3134;DHT22;1577;49.912;10.924;2023-04-24T14:47:05;11.80;99.90
3134;DHT22;1577;49.912;10.924;2023-04-24T14:49:30;11.80;99.90
3134;DHT22;1577;49.912;10.924;2023-04-24T14:51:56;11.80;99.90
3134;DHT22;1577;49.912;10.924;2023-04-24T14:54:22;12.00;99.90
3134;DHT22;1577;49.912;10.924;2023-04-24T14:56:49;12.20;99.90
3134;DHT22;1577;49.912;10.924;2023-04-24T14:59:14;12.30;99.90
3134;DHT22;1577;49.912;10.924;2023-04-24T15:01:40;12.50;99.90
3134;DHT22;1577;49.912;10.924;2023-04-24T15:04:06;12.60;99.90
3134;DHT22;1577;49.912;10.924;2023-04-24T15:06:31;12.80;99.90
3134;DHT22;1577;49.912;10.924;2023-04-24T15:08:58;12.90;99.90
3134;DHT22;1577;49.912;10.924;2023-04-24T15:11:23;12.90;99.90
3134;DHT22;1577;49.912;10.924;2023-04-24T15:13:50;13.00;99.90
3134;DHT22;1577;49.912;10.924;2023-04-24T15:16:15;13.00;99.90
3134;DHT22;1577;49.912;10.924;2023-04-24T15:18:41;13.00;99.90
3134;DHT22;1577;49.912;10.924;2023-04-24T15:21:07;13.00;99.90
3134;DHT22;1577;49.912;10.924;2023-04-24T15:23:32;12.90;99.90
3134;DHT22;1577;49.912;10.924;2023-04-24T15:25:58;12.80;99.90
3134;DHT22;1577;49.912;10.924;2023-04-24T15:28:24;12.70;99.90
3134;DHT22;1577;49.912;10.924;2023-04-24T15:30:50;12.50;99.90
3134;DHT22;1577;49.912;10.924;2023-04-24T15:33:16;12.00;99.90
3134;DHT22;1577;49.912;10.924;2023-04-24T15:35:41;11.50;99.90
3134;DHT22;1577;49.912;10.924;2023-04-24T15:38:07;11.30;99.90
3134;DHT22;1577;49.912;10.924;2023-04-24T15:40:33;11.20;99.90
3134;DHT22;1577;49.912;10.924;2023-04-24T15:42:58;11.10;99.90
3134;DHT22;1577;49.912;10.924;2023-04-24T15:45:24;11.00;99.90
3134;DHT22;1577;49.912;10.924;2023-04-24T15:47:50;10.90;99.90
3134;DHT22;1577;49.912;10.924;2023-04-24T15:50:16;10.90;99.90
3134;DHT22;1577;49.912;10.924;2023-04-24T15:52:42;11.00;99.90